Time;durP1;ratioP1;P1;durP2;ratioP2;P2;SDS_P1;SDS_P2;PMS_P1;PMS_P2;Temp;Humidity;BMP_temperature;BMP_pressure;BME280_temperature;BME280_humidity;BME280_pressure;Samples;Min_cycle;Max_cycle;Signal;HPM_P1;HPM_P2
2023/07/28 00:00:56;;;;;;;1.63;0.80;;;;;;;;;;5035246;28;20025;-77
2023/07/28 00:03:22;;;;;;;3.35;0.68;;;;;;;;;;5051490;28;20094;-77
2023/07/28 00:05:51;;;;;;;2.17;0.85;;;;;;;;;;5051633;28;20040;-75
2023/07/28 00:08:17;;;;;;;1.38;0.80;;;;;;;;;;5051999;28;20043;-77
2023/07/28 00:10:42;;;;;;;3.80;1.90;;;;;;;;;;5035603;28;20392;-77
2023/07/28 00:13:08;;;;;;;1.00;0.60;;;;;;;;;;5041080;28;20075;-75
2023/07/28 00:15:34;;;;;;;1.75;0.77;;;;;;;;;;5041849;28;20033;-78
2023/07/28 00:18:01;;;;;;;1.20;0.70;;;;;;;;;;5051162;28;20037;-78
2023/07/28 00:20:27;;;;;;;2.20;0.70;;;;;;;;;;5036885;28;20033;-79
2023/07/28 00:22:53;;;;;;;1.98;1.13;;;;;;;;;;5025768;28;20032;-78
2023/07/28 00:25:18;;;;;;;4.22;0.80;;;;;;;;;;5056039;28;20058;-78
2023/07/28 00:27:44;;;;;;;3.55;0.80;;;;;;;;;;5046522;28;20037;-78
2023/07/28 00:30:11;;;;;;;1.88;0.63;;;;;;;;;;5056868;28;20036;-77
2023/07/28 00:32:36;;;;;;;1.35;0.50;;;;;;;;;;5059727;28;20033;-78
2023/07/28 00:35:02;;;;;;;3.30;0.70;;;;;;;;;;5048808;28;20105;-78
2023/07/28 00:37:28;;;;;;;1.27;0.70;;;;;;;;;;5047392;28;20300;-79
2023/07/28 00:39:53;;;;;;;2.63;0.70;;;;;;;;;;5055640;28;20527;-76
2023/07/28 00:42:21;;;;;;;1.15;0.63;;;;;;;;;;5037136;28;20503;-79
2023/07/28 00:44:47;;;;;;;2.20;0.80;;;;;;;;;;5049696;28;20029;-78
2023/07/28 00:47:13;;;;;;;2.00;0.80;;;;;;;;;;5047541;28;20028;-77
2023/07/28 00:49:39;;;;;;;3.45;0.70;;;;;;;;;;5043907;28;20040;-77
2023/07/28 00:52:06;;;;;;;3.05;0.70;;;;;;;;;;5050268;28;20029;-77
2023/07/28 00:54:32;;;;;;;2.67;0.95;;;;;;;;;;5018469;28;20037;-77
2023/07/28 00:56:57;;;;;;;0.80;0.57;;;;;;;;;;5044245;28;20025;-77
2023/07/28 00:59:23;;;;;;;1.98;0.57;;;;;;;;;;5033862;28;20032;-76
2023/07/28 01:01:49;;;;;;;2.47;0.68;;;;;;;;;;5047326;28;20570;-76
2023/07/28 01:04:14;;;;;;;1.88;0.63;;;;;;;;;;5048034;28;20052;-76
2023/07/28 01:06:42;;;;;;;2.78;0.82;;;;;;;;;;5049240;28;20074;-76
2023/07/28 01:09:16;;;;;;;2.13;0.75;;;;;;;;;;5042737;28;20036;-77
2023/07/28 01:11:54;;;;;;;2.95;0.70;;;;;;;;;;5042782;28;20026;-76
2023/07/28 01:14:20;;;;;;;1.77;0.50;;;;;;;;;;5034760;28;20373;-76
2023/07/28 01:16:46;;;;;;;1.27;0.57;;;;;;;;;;5041611;28;20037;-76
2023/07/28 01:19:12;;;;;;;2.47;0.50;;;;;;;;;;5016902;28;20508;-75
2023/07/28 01:21:43;;;;;;;2.60;0.60;;;;;;;;;;5046509;28;20075;-76
2023/07/28 01:24:15;;;;;;;2.60;0.70;;;;;;;;;;5037987;28;20030;-75
2023/07/28 01:26:41;;;;;;;5.65;0.90;;;;;;;;;;5020627;28;20088;-75
2023/07/28 01:29:06;;;;;;;1.83;0.70;;;;;;;;;;5052481;28;20492;-75
2023/07/28 01:31:32;;;;;;;3.63;0.90;;;;;;;;;;5055504;28;20029;-75
2023/07/28 01:33:57;;;;;;;3.30;0.90;;;;;;;;;;5044746;28;20029;-75
2023/07/28 01:36:23;;;;;;;1.27;0.60;;;;;;;;;;5042310;28;20021;-73
2023/07/28 01:38:48;;;;;;;2.60;0.80;;;;;;;;;;5056104;28;20029;-74
2023/07/28 01:41:14;;;;;;;4.28;1.05;;;;;;;;;;5036156;28;20032;-74
2023/07/28 01:43:39;;;;;;;3.55;0.70;;;;;;;;;;5038970;28;20572;-74
2023/07/28 01:46:05;;;;;;;1.63;0.80;;;;;;;;;;5037824;28;20031;-75
2023/07/28 01:48:31;;;;;;;2.58;0.68;;;;;;;;;;5049803;28;20041;-75
2023/07/28 01:50:56;;;;;;;4.43;0.90;;;;;;;;;;5040629;28;20049;-76
2023/07/28 01:53:22;;;;;;;1.35;0.75;;;;;;;;;;5032617;28;20037;-76
2023/07/28 01:55:47;;;;;;;2.80;0.90;;;;;;;;;;5047533;28;20033;-76
2023/07/28 01:58:13;;;;;;;2.38;0.80;;;;;;;;;;5036343;28;20480;-74
2023/07/28 02:00:38;;;;;;;1.33;0.77;;;;;;;;;;5048712;28;20480;-75
2023/07/28 02:03:04;;;;;;;3.05;0.85;;;;;;;;;;5022628;28;20427;-74
2023/07/28 02:05:30;;;;;;;2.50;0.60;;;;;;;;;;5043914;28;20470;-75
2023/07/28 02:07:55;;;;;;;2.28;0.60;;;;;;;;;;5053059;28;20447;-75
2023/07/28 02:10:25;;;;;;;1.63;0.80;;;;;;;;;;5052628;28;20024;-76
2023/07/28 02:12:51;;;;;;;2.00;0.68;;;;;;;;;;5029994;28;20025;-75
2023/07/28 02:15:17;;;;;;;1.85;0.70;;;;;;;;;;5043777;28;20384;-76
2023/07/28 02:17:42;;;;;;;3.67;1.08;;;;;;;;;;5035693;28;20120;-75
2023/07/28 02:20:12;;;;;;;1.70;0.70;;;;;;;;;;5035736;28;20035;-76
2023/07/28 02:22:42;;;;;;;2.15;0.75;;;;;;;;;;5052094;28;20036;-77
2023/07/28 02:25:08;;;;;;;1.45;0.70;;;;;;;;;;5035211;28;20568;-76
2023/07/28 02:27:33;;;;;;;4.05;0.73;;;;;;;;;;5052196;28;20112;-77
2023/07/28 02:29:59;;;;;;;1.13;0.60;;;;;;;;;;5050041;28;20112;-76
2023/07/28 02:32:24;;;;;;;1.30;0.70;;;;;;;;;;5031399;28;20060;-76
2023/07/28 02:34:50;;;;;;;2.92;0.63;;;;;;;;;;5043094;28;20028;-76
2023/07/28 02:37:16;;;;;;;1.35;0.68;;;;;;;;;;5026460;28;20021;-76
2023/07/28 02:39:41;;;;;;;1.30;0.60;;;;;;;;;;5031991;28;20507;-77
2023/07/28 02:42:07;;;;;;;2.42;0.82;;;;;;;;;;5035917;28;20028;-76
2023/07/28 02:44:33;;;;;;;2.67;0.80;;;;;;;;;;5043856;28;20099;-76
2023/07/28 02:46:58;;;;;;;2.20;0.80;;;;;;;;;;5015107;28;20030;-76
2023/07/28 02:49:24;;;;;;;2.47;0.73;;;;;;;;;;5033925;28;20033;-75
2023/07/28 02:51:49;;;;;;;2.35;0.70;;;;;;;;;;5049739;28;20028;-76
2023/07/28 02:54:15;;;;;;;1.35;0.52;;;;;;;;;;5046071;28;20059;-76
2023/07/28 02:56:40;;;;;;;0.93;0.50;;;;;;;;;;5041159;28;20028;-76
2023/07/28 02:59:10;;;;;;;2.05;0.68;;;;;;;;;;5051106;28;20063;-76
2023/07/28 03:01:35;;;;;;;1.35;0.70;;;;;;;;;;5034802;28;20057;-76
2023/07/28 03:04:02;;;;;;;3.53;0.90;;;;;;;;;;5034656;28;20464;-76
2023/07/28 03:06:30;;;;;;;2.08;0.73;;;;;;;;;;5043407;28;20056;-76
2023/07/28 03:08:58;;;;;;;2.28;0.80;;;;;;;;;;5025369;28;20028;-76
2023/07/28 03:11:46;;;;;;;1.77;0.80;;;;;;;;;;5045298;28;20139;-77
2023/07/28 03:14:12;;;;;;;3.47;0.60;;;;;;;;;;5032480;28;20531;-75
2023/07/28 03:16:38;;;;;;;3.92;0.88;;;;;;;;;;5039365;28;20060;-75
2023/07/28 03:19:04;;;;;;;2.35;0.65;;;;;;;;;;5040066;28;20060;-76
2023/07/28 03:21:30;;;;;;;1.92;0.73;;;;;;;;;;5016043;28;20112;-76
2023/07/28 03:23:56;;;;;;;3.17;0.80;;;;;;;;;;5035670;28;20127;-75
2023/07/28 03:26:21;;;;;;;4.32;0.88;;;;;;;;;;5050348;28;20037;-76
2023/07/28 03:28:47;;;;;;;1.95;0.60;;;;;;;;;;5043334;28;20397;-74
2023/07/28 03:31:12;;;;;;;1.38;0.82;;;;;;;;;;5012873;28;20488;-77
2023/07/28 03:33:38;;;;;;;2.80;0.55;;;;;;;;;;5030888;28;20032;-76
2023/07/28 03:36:03;;;;;;;1.02;0.60;;;;;;;;;;5048290;28;20029;-75
2023/07/28 03:38:31;;;;;;;2.58;0.75;;;;;;;;;;5039450;28;20025;-76
2023/07/28 03:40:57;;;;;;;2.70;0.68;;;;;;;;;;5050613;28;20032;-75
2023/07/28 03:43:23;;;;;;;4.13;0.85;;;;;;;;;;5036164;28;20031;-76
2023/07/28 03:45:48;;;;;;;5.45;0.75;;;;;;;;;;5049686;28;20029;-76
2023/07/28 03:48:14;;;;;;;1.45;0.70;;;;;;;;;;5050304;28;20036;-75
2023/07/28 03:50:39;;;;;;;1.05;0.60;;;;;;;;;;5042708;28;20104;-77
2023/07/28 03:53:05;;;;;;;2.03;0.52;;;;;;;;;;5025979;28;20036;-77
2023/07/28 03:55:30;;;;;;;1.98;0.75;;;;;;;;;;5034899;28;20029;-77
2023/07/28 03:57:56;;;;;;;2.55;0.80;;;;;;;;;;5047443;28;20025;-76
2023/07/28 04:00:21;;;;;;;2.95;0.60;;;;;;;;;;5038647;28;20025;-76
2023/07/28 04:02:47;;;;;;;3.25;0.88;;;;;;;;;;5051416;28;20472;-76
2023/07/28 04:05:12;;;;;;;2.63;0.98;;;;;;;;;;5039370;28;20033;-76
2023/07/28 04:07:38;;;;;;;6.53;0.73;;;;;;;;;;5049124;28;20033;-75
2023/07/28 04:10:04;;;;;;;2.08;1.08;;;;;;;;;;5019855;28;20048;-75
2023/07/28 04:12:29;;;;;;;6.20;0.75;;;;;;;;;;5046817;28;20110;-75
2023/07/28 04:14:55;;;;;;;2.63;0.70;;;;;;;;;;5043397;28;20013;-75
2023/07/28 04:17:21;;;;;;;3.75;0.90;;;;;;;;;;5034738;28;20036;-73
2023/07/28 04:19:46;;;;;;;2.25;0.70;;;;;;;;;;5035358;28;20037;-75
2023/07/28 04:22:13;;;;;;;3.42;0.80;;;;;;;;;;5017073;28;20041;-75
2023/07/28 04:24:38;;;;;;;4.32;0.80;;;;;;;;;;5021483;28;20040;-76
2023/07/28 04:27:04;;;;;;;2.47;0.80;;;;;;;;;;5045390;28;20029;-75
2023/07/28 04:29:30;;;;;;;2.00;0.75;;;;;;;;;;5038606;28;20400;-75
2023/07/28 04:31:56;;;;;;;2.75;0.98;;;;;;;;;;5033655;28;20551;-77
2023/07/28 04:34:28;;;;;;;4.45;1.10;;;;;;;;;;5050153;28;20126;-77
2023/07/28 04:37:05;;;;;;;2.60;0.90;;;;;;;;;;5030329;28;20084;-77
2023/07/28 04:39:48;;;;;;;1.65;0.75;;;;;;;;;;5032025;28;20021;-76
2023/07/28 04:42:15;;;;;;;1.27;0.68;;;;;;;;;;5033714;28;20029;-77
2023/07/28 04:44:45;;;;;;;1.88;0.90;;;;;;;;;;5033912;28;20116;-77
2023/07/28 04:47:11;;;;;;;1.85;0.90;;;;;;;;;;5033688;28;20565;-76
2023/07/28 04:49:36;;;;;;;2.25;0.88;;;;;;;;;;5051365;28;20064;-77
2023/07/28 04:52:08;;;;;;;1.50;0.80;;;;;;;;;;5050412;28;20123;-77
2023/07/28 04:54:59;;;;;;;1.60;0.90;;;;;;;;;;5033601;28;20553;-76
2023/07/28 04:57:25;;;;;;;3.15;1.15;;;;;;;;;;5029646;28;20104;-76
2023/07/28 04:59:51;;;;;;;2.25;0.90;;;;;;;;;;5033847;28;20025;-76
2023/07/28 05:02:17;;;;;;;1.88;0.93;;;;;;;;;;5035453;28;20075;-79
2023/07/28 05:04:42;;;;;;;3.55;1.00;;;;;;;;;;5051797;28;20288;-78
2023/07/28 05:07:08;;;;;;;3.47;1.20;;;;;;;;;;5037037;28;20567;-79
2023/07/28 05:09:34;;;;;;;1.13;0.70;;;;;;;;;;5042798;23;20549;-79
2023/07/28 05:12:00;;;;;;;2.95;1.30;;;;;;;;;;5023648;28;20156;-78
2023/07/28 05:14:25;;;;;;;2.10;0.90;;;;;;;;;;5030607;28;20022;-79
2023/07/28 05:16:51;;;;;;;1.15;0.80;;;;;;;;;;5036442;28;20044;-82
2023/07/28 05:19:16;;;;;;;1.80;0.80;;;;;;;;;;5035214;28;20053;-82
2023/07/28 05:22:08;;;;;;;3.38;0.70;;;;;;;;;;5044138;28;20025;-81
2023/07/28 05:24:44;;;;;;;1.67;0.60;;;;;;;;;;5033117;28;20029;-81
2023/07/28 05:27:11;;;;;;;4.22;1.00;;;;;;;;;;5037014;28;20056;-80
2023/07/28 05:29:37;;;;;;;1.65;0.98;;;;;;;;;;5010460;28;20064;-79
2023/07/28 05:32:05;;;;;;;4.20;0.77;;;;;;;;;;5015383;28;20033;-80
2023/07/28 05:34:41;;;;;;;4.00;0.90;;;;;;;;;;5018781;28;20029;-82
2023/07/28 05:37:07;;;;;;;4.60;0.95;;;;;;;;;;5035747;28;20056;-81
2023/07/28 05:39:33;;;;;;;3.05;0.98;;;;;;;;;;5034284;28;20025;-81
2023/07/28 05:41:58;;;;;;;3.08;0.82;;;;;;;;;;5038554;28;20427;-80
2023/07/28 05:44:24;;;;;;;2.30;1.05;;;;;;;;;;5037303;28;20025;-83
2023/07/28 05:46:50;;;;;;;1.83;0.80;;;;;;;;;;5037436;28;20022;-79
2023/07/28 05:49:16;;;;;;;8.30;1.95;;;;;;;;;;5017346;28;20512;-80
2023/07/28 05:51:41;;;;;;;1.70;0.85;;;;;;;;;;5017439;28;20040;-80
2023/07/28 05:54:10;;;;;;;3.38;1.00;;;;;;;;;;5034665;28;20029;-81
2023/07/28 05:56:38;;;;;;;2.05;0.90;;;;;;;;;;4998893;28;20570;-84
2023/07/28 05:59:04;;;;;;;3.88;1.23;;;;;;;;;;5013287;28;20030;-82
2023/07/28 06:01:30;;;;;;;1.42;0.70;;;;;;;;;;5023700;28;20025;-82
2023/07/28 06:04:15;;;;;;;2.05;0.90;;;;;;;;;;5023888;28;20026;-82
2023/07/28 06:06:45;;;;;;;3.55;0.70;;;;;;;;;;5016949;28;20480;-84
2023/07/28 06:09:13;;;;;;;3.22;1.42;;;;;;;;;;5013634;28;20577;-82
2023/07/28 06:11:39;;;;;;;1.75;0.80;;;;;;;;;;5030580;28;20470;-83
2023/07/28 06:14:05;;;;;;;3.67;0.60;;;;;;;;;;5032568;28;20037;-81
2023/07/28 06:16:33;;;;;;;;;;;;;;;;;;5016706;28;20033;-81
2023/07/28 06:18:59;;;;;;;1.27;0.55;;;;;;;;;;5032813;28;20407;-83
2023/07/28 06:21:24;;;;;;;2.63;0.85;;;;;;;;;;5032932;28;20488;-81
2023/07/28 06:23:50;;;;;;;4.85;0.68;;;;;;;;;;5033156;28;20033;-80
2023/07/28 06:26:18;;;;;;;6.35;1.05;;;;;;;;;;5024705;28;20424;-82
2023/07/28 06:28:44;;;;;;;6.50;0.70;;;;;;;;;;5032660;28;20021;-79
2023/07/28 06:31:10;;;;;;;0.93;0.50;;;;;;;;;;5033435;28;20037;-82
2023/07/28 06:33:36;;;;;;;2.15;0.80;;;;;;;;;;5029081;28;20109;-81
2023/07/28 06:36:02;;;;;;;1.52;0.50;;;;;;;;;;5021090;28;20487;-80
2023/07/28 06:38:28;;;;;;;1.17;0.50;;;;;;;;;;5022812;28;20361;-81
2023/07/28 06:40:55;;;;;;;2.45;0.55;;;;;;;;;;5018045;28;20037;-82
2023/07/28 06:43:20;;;;;;;1.48;0.80;;;;;;;;;;5013583;28;20117;-81
2023/07/28 06:45:50;;;;;;;1.85;0.65;;;;;;;;;;4997976;28;20034;-81
2023/07/28 06:48:16;;;;;;;2.17;0.65;;;;;;;;;;5017742;28;20025;-82
2023/07/28 06:50:42;;;;;;;5.68;1.42;;;;;;;;;;5023818;28;20345;-82
2023/07/28 06:53:07;;;;;;;1.83;0.57;;;;;;;;;;5033317;28;20438;-83
2023/07/28 06:55:33;;;;;;;1.10;0.57;;;;;;;;;;5019964;28;20101;-81
2023/07/28 06:57:58;;;;;;;2.42;0.50;;;;;;;;;;5021032;28;20030;-82
2023/07/28 07:00:24;;;;;;;2.38;0.70;;;;;;;;;;5012692;28;20157;-82
2023/07/28 07:02:50;;;;;;;2.08;0.63;;;;;;;;;;5046799;28;20102;-81
2023/07/28 07:05:16;;;;;;;1.63;0.60;;;;;;;;;;5055661;28;20036;-80
2023/07/28 07:07:41;;;;;;;4.38;0.85;;;;;;;;;;5033626;28;20013;-81
2023/07/28 07:10:07;;;;;;;2.03;0.57;;;;;;;;;;5035496;28;20069;-81
2023/07/28 07:12:34;;;;;;;1.70;0.65;;;;;;;;;;5047313;28;20046;-82
2023/07/28 07:14:59;;;;;;;4.15;1.17;;;;;;;;;;5021440;28;20562;-80
2023/07/28 07:17:25;;;;;;;3.92;0.65;;;;;;;;;;5037930;28;20026;-80
2023/07/28 07:19:50;;;;;;;3.63;0.82;;;;;;;;;;5018928;28;20022;-81
2023/07/28 07:22:16;;;;;;;3.20;0.73;;;;;;;;;;5014098;28;20030;-81
2023/07/28 07:24:42;;;;;;;2.28;0.77;;;;;;;;;;5026099;28;20037;-83
2023/07/28 07:27:10;;;;;;;0.85;0.55;;;;;;;;;;5032118;28;20395;-82
2023/07/28 07:29:39;;;;;;;2.00;0.75;;;;;;;;;;5013582;28;20042;-78
2023/07/28 07:32:05;;;;;;;1.58;0.70;;;;;;;;;;5011647;28;20412;-77
2023/07/28 07:34:31;;;;;;;1.17;0.73;;;;;;;;;;5022901;28;20469;-77
2023/07/28 07:36:57;;;;;;;2.03;0.70;;;;;;;;;;5032495;28;20500;-79
2023/07/28 07:39:23;;;;;;;2.15;0.60;;;;;;;;;;5032010;28;20068;-79
2023/07/28 07:41:48;;;;;;;1.25;0.70;;;;;;;;;;5030945;28;20075;-77
2023/07/28 07:44:14;;;;;;;4.88;0.70;;;;;;;;;;5030606;28;20057;-77
2023/07/28 07:46:43;;;;;;;1.30;0.70;;;;;;;;;;5003519;28;20488;-78
2023/07/28 07:49:08;;;;;;;3.17;0.68;;;;;;;;;;5012432;28;20052;-79
2023/07/28 07:51:34;;;;;;;2.10;0.60;;;;;;;;;;5030247;28;20484;-78
2023/07/28 07:54:01;;;;;;;1.50;0.70;;;;;;;;;;5032037;28;20033;-77
2023/07/28 07:56:27;;;;;;;2.50;0.82;;;;;;;;;;5030647;28;20057;-77
2023/07/28 07:58:52;;;;;;;3.55;0.60;;;;;;;;;;5034084;28;20049;-78
2023/07/28 08:01:18;;;;;;;1.33;0.60;;;;;;;;;;5034261;28;20400;-78
2023/07/28 08:03:43;;;;;;;1.73;0.80;;;;;;;;;;5047751;28;20049;-76
2023/07/28 08:06:11;;;;;;;2.25;0.70;;;;;;;;;;5049563;28;20476;-78
2023/07/28 08:08:36;;;;;;;1.05;0.60;;;;;;;;;;5019395;28;20046;-76
2023/07/28 08:11:02;;;;;;;2.28;0.70;;;;;;;;;;5033695;28;20510;-76
2023/07/28 08:13:28;;;;;;;1.67;0.90;;;;;;;;;;5032619;28;20030;-76
2023/07/28 08:15:54;;;;;;;2.88;0.80;;;;;;;;;;5029543;28;20079;-77
2023/07/28 08:18:19;;;;;;;1.83;1.00;;;;;;;;;;5023638;28;20068;-78
2023/07/28 08:20:45;;;;;;;2.30;0.77;;;;;;;;;;5014180;28;20121;-77
2023/07/28 08:23:11;;;;;;;2.50;0.70;;;;;;;;;;5030572;28;20087;-78
2023/07/28 08:25:39;;;;;;;1.65;0.40;;;;;;;;;;5010877;28;20136;-75
2023/07/28 08:28:05;;;;;;;;;;;;;;;;;;5019874;28;20081;-76
2023/07/28 08:30:31;;;;;;;1.55;0.80;;;;;;;;;;5030975;28;19916;-76
2023/07/28 08:32:57;;;;;;;0.55;0.47;;;;;;;;;;5030638;28;20030;-76
2023/07/28 08:35:22;;;;;;;1.42;0.70;;;;;;;;;;5020915;28;20026;-77
2023/07/28 08:37:48;;;;;;;1.98;0.80;;;;;;;;;;5034024;28;20025;-76
2023/07/28 08:40:14;;;;;;;5.07;0.70;;;;;;;;;;5034662;28;20116;-76
2023/07/28 08:42:40;;;;;;;3.00;0.70;;;;;;;;;;5035635;28;20038;-77
2023/07/28 08:45:06;;;;;;;2.17;0.90;;;;;;;;;;5034890;28;20112;-78
2023/07/28 08:47:32;;;;;;;2.13;0.70;;;;;;;;;;5036169;28;20056;-77
2023/07/28 08:49:57;;;;;;;2.88;0.70;;;;;;;;;;5036440;28;20032;-80
2023/07/28 08:52:26;;;;;;;1.88;1.00;;;;;;;;;;5035217;28;20037;-77
2023/07/28 08:54:52;;;;;;;3.60;0.77;;;;;;;;;;5034938;28;20033;-76
2023/07/28 08:57:19;;;;;;;1.02;0.80;;;;;;;;;;5036241;28;20024;-78
2023/07/28 08:59:47;;;;;;;2.58;0.95;;;;;;;;;;5029809;28;20097;-80
2023/07/28 09:02:17;;;;;;;6.47;1.13;;;;;;;;;;5019721;28;20033;-81
2023/07/28 09:04:47;;;;;;;1.55;0.93;;;;;;;;;;5036750;28;20018;-86
2023/07/28 09:07:13;;;;;;;3.35;0.70;;;;;;;;;;5034024;28;20025;-87
2023/07/28 09:09:40;;;;;;;1.48;0.68;;;;;;;;;;5044086;28;20044;-89
2023/07/28 09:12:06;;;;;;;0.68;0.45;;;;;;;;;;5023469;28;20030;-86
2023/07/28 09:14:34;;;;;;;1.98;0.65;;;;;;;;;;5017485;28;20030;-85
2023/07/28 09:17:09;;;;;;;2.67;0.80;;;;;;;;;;5007923;28;20428;-87
2023/07/28 09:19:48;;;;;;;0.85;0.52;;;;;;;;;;5022825;28;20473;-85
2023/07/28 09:22:14;;;;;;;3.13;1.30;;;;;;;;;;5035253;28;20484;-84
2023/07/28 09:24:39;;;;;;;3.08;0.70;;;;;;;;;;5015079;28;20100;-80
2023/07/28 09:27:05;;;;;;;1.63;0.73;;;;;;;;;;5034856;28;20036;-79
2023/07/28 09:29:30;;;;;;;1.60;0.85;;;;;;;;;;5001466;28;20503;-78
2023/07/28 09:32:06;;;;;;;2.03;0.77;;;;;;;;;;5017584;28;20083;-80
2023/07/28 09:34:35;;;;;;;1.88;0.80;;;;;;;;;;5033618;28;20399;-81
2023/07/28 09:37:01;;;;;;;2.50;0.95;;;;;;;;;;5034470;28;20033;-80
2023/07/28 09:39:27;;;;;;;1.92;0.80;;;;;;;;;;5033810;28;20025;-78
2023/07/28 09:41:57;;;;;;;1.45;0.70;;;;;;;;;;5034075;28;20033;-78
2023/07/28 09:44:22;;;;;;;5.32;1.02;;;;;;;;;;5035841;28;20045;-78
2023/07/28 09:47:21;;;;;;;1.60;0.70;;;;;;;;;;5052948;28;20342;-80
2023/07/28 09:49:48;;;;;;;3.25;0.80;;;;;;;;;;5053025;28;20029;-80
2023/07/28 09:52:15;;;;;;;2.58;0.70;;;;;;;;;;5057552;28;20040;-79
2023/07/28 09:54:42;;;;;;;2.17;0.80;;;;;;;;;;5057493;28;20013;-79
2023/07/28 09:57:11;;;;;;;4.07;0.80;;;;;;;;;;5056050;28;20034;-78
2023/07/28 09:59:38;;;;;;;4.57;0.80;;;;;;;;;;5034628;28;20499;-81
2023/07/28 10:02:05;;;;;;;1.35;0.63;;;;;;;;;;5031770;28;20504;-78
2023/07/28 10:04:32;;;;;;;0.95;0.70;;;;;;;;;;5035645;28;20025;-79
2023/07/28 10:06:57;;;;;;;3.35;0.93;;;;;;;;;;5027646;28;20025;-79
2023/07/28 10:09:27;;;;;;;3.20;1.00;;;;;;;;;;5032721;28;20034;-80
2023/07/28 10:11:53;;;;;;;2.95;1.00;;;;;;;;;;5017294;28;20033;-78
2023/07/28 10:14:26;;;;;;;1.95;1.02;;;;;;;;;;5034728;28;20033;-79
2023/07/28 10:16:52;;;;;;;3.13;1.00;;;;;;;;;;5035226;28;20037;-78
2023/07/28 10:19:20;;;;;;;3.45;1.00;;;;;;;;;;5016652;28;20395;-75
2023/07/28 10:24:56;;;;;;;33.20;21.17;;;;;;;;;;5034671;28;20120;-82
2023/07/28 10:27:31;;;;;;;8.02;3.65;;;;;;;;;;5041298;28;20029;-82
2023/07/28 10:30:01;;;;;;;3.78;1.85;;;;;;;;;;5015935;28;20095;-84
2023/07/28 10:32:28;;;;;;;4.60;2.08;;;;;;;;;;5020804;28;20034;-85
2023/07/28 10:35:01;;;;;;;3.37;1.53;;;;;;;;;;5027491;28;20033;-85
2023/07/28 10:37:26;;;;;;;4.32;2.03;;;;;;;;;;5032482;28;20038;-85
2023/07/28 10:40:21;;;;;;;3.35;1.48;;;;;;;;;;5013135;28;20032;-85
2023/07/28 10:42:49;;;;;;;4.15;1.30;;;;;;;;;;5000586;28;20153;-84
2023/07/28 10:45:15;;;;;;;4.65;2.03;;;;;;;;;;5030025;28;20038;-84
2023/07/28 10:47:41;;;;;;;4.18;1.42;;;;;;;;;;5033272;28;20436;-83
2023/07/28 10:50:10;;;;;;;3.38;1.08;;;;;;;;;;5013573;28;20391;-85
2023/07/28 10:52:45;;;;;;;2.70;1.15;;;;;;;;;;5013582;28;20030;-84
2023/07/28 10:55:17;;;;;;;2.40;1.00;;;;;;;;;;5032825;28;20026;-84
2023/07/28 10:57:45;;;;;;;4.60;0.90;;;;;;;;;;4996400;28;20046;-85
2023/07/28 11:00:12;;;;;;;7.18;1.08;;;;;;;;;;4991773;28;20030;-83
2023/07/28 11:02:52;;;;;;;3.92;1.10;;;;;;;;;;5023998;28;20029;-84
2023/07/28 11:05:28;;;;;;;2.92;1.20;;;;;;;;;;5032376;28;20107;-82
2023/07/28 11:07:54;;;;;;;1.13;0.80;;;;;;;;;;5034075;23;20484;-86
2023/07/28 11:10:20;;;;;;;3.15;0.90;;;;;;;;;;5031994;28;20041;-83
2023/07/28 11:12:50;;;;;;;2.45;0.90;;;;;;;;;;5016219;28;20037;-85
2023/07/28 11:15:16;;;;;;;5.82;1.20;;;;;;;;;;5016392;28;20509;-85
2023/07/28 11:17:46;;;;;;;1.67;0.90;;;;;;;;;;5016509;28;20067;-84
2023/07/28 11:20:21;;;;;;;3.05;0.80;;;;;;;;;;5008341;28;20038;-84
2023/07/28 11:22:54;;;;;;;3.92;1.00;;;;;;;;;;5008644;28;20029;-84
2023/07/28 11:25:22;;;;;;;3.65;1.10;;;;;;;;;;5000026;28;20044;-83
2023/07/28 11:27:48;;;;;;;;;;;;;;;;;;5011758;28;20041;-74
2023/07/28 11:30:14;;;;;;;1.88;0.80;;;;;;;;;;5019997;28;19909;-76
2023/07/28 11:32:42;;;;;;;2.03;0.93;;;;;;;;;;5019927;28;20034;-76
2023/07/28 11:35:09;;;;;;;;;;;;;;;;;;5026282;28;20018;-77
2023/07/28 11:37:35;;;;;;;2.08;0.90;;;;;;;;;;5029761;28;20380;-78
2023/07/28 11:40:01;;;;;;;3.45;0.90;;;;;;;;;;5018763;28;20025;-76
2023/07/28 11:42:28;;;;;;;3.17;1.00;;;;;;;;;;5005131;28;20497;-76
2023/07/28 11:44:53;;;;;;;1.17;0.60;;;;;;;;;;5008004;28;20037;-77
2023/07/28 11:47:19;;;;;;;1.58;0.90;;;;;;;;;;5014100;28;20044;-76
2023/07/28 11:49:46;;;;;;;2.30;1.10;;;;;;;;;;4998574;28;20095;-77
2023/07/28 11:52:11;;;;;;;1.65;0.95;;;;;;;;;;5023342;28;20030;-75
2023/07/28 11:54:39;;;;;;;9.45;1.25;;;;;;;;;;5022190;28;20041;-76
2023/07/28 11:57:06;;;;;;;3.90;1.13;;;;;;;;;;5016596;28;20030;-76
2023/07/28 11:59:32;;;;;;;5.25;0.90;;;;;;;;;;5028472;28;20139;-75
2023/07/28 12:01:58;;;;;;;1.27;0.80;;;;;;;;;;5023485;28;20033;-76
2023/07/28 12:04:28;;;;;;;3.60;1.10;;;;;;;;;;5020951;28;20530;-75
2023/07/28 12:07:06;;;;;;;4.00;1.10;;;;;;;;;;5020515;28;20484;-76
2023/07/28 12:09:33;;;;;;;1.70;0.90;;;;;;;;;;5029103;28;20116;-76
2023/07/28 12:12:02;;;;;;;6.70;1.15;;;;;;;;;;5027435;28;20072;-76
2023/07/28 12:14:34;;;;;;;2.17;1.10;;;;;;;;;;5024241;28;20064;-75
2023/07/28 12:17:01;;;;;;;2.45;0.90;;;;;;;;;;5022020;28;20076;-74
2023/07/28 12:19:26;;;;;;;2.55;1.10;;;;;;;;;;5017032;28;20536;-77
2023/07/28 12:21:52;;;;;;;3.95;0.90;;;;;;;;;;5014172;28;20056;-75
2023/07/28 12:24:17;;;;;;;1.77;0.90;;;;;;;;;;5023266;28;20044;-77
2023/07/28 12:26:45;;;;;;;5.35;1.67;;;;;;;;;;5008184;28;20092;-76
2023/07/28 12:29:10;;;;;;;1.25;0.75;;;;;;;;;;5032747;28;20067;-75
2023/07/28 12:31:36;;;;;;;2.47;0.95;;;;;;;;;;4988057;28;20030;-76
2023/07/28 12:34:01;;;;;;;5.65;1.02;;;;;;;;;;5032939;28;20030;-76
2023/07/28 12:36:27;;;;;;;3.72;0.82;;;;;;;;;;5020220;28;20437;-76
2023/07/28 12:38:53;;;;;;;1.88;0.80;;;;;;;;;;5028140;28;20105;-76
2023/07/28 12:41:18;;;;;;;2.40;0.80;;;;;;;;;;5034510;28;20423;-76
2023/07/28 12:43:44;;;;;;;3.03;0.70;;;;;;;;;;5019676;28;20053;-76
2023/07/28 12:46:10;;;;;;;0.77;0.60;;;;;;;;;;5029332;28;20038;-75
2023/07/28 12:48:36;;;;;;;4.93;0.80;;;;;;;;;;5025797;28;20091;-76
2023/07/28 12:51:01;;;;;;;1.67;0.80;;;;;;;;;;5003088;28;20040;-78
2023/07/28 12:53:27;;;;;;;2.78;1.08;;;;;;;;;;5019753;28;20381;-77
2023/07/28 12:55:52;;;;;;;2.72;0.90;;;;;;;;;;5035444;28;20439;-77
2023/07/28 12:58:18;;;;;;;4.15;1.00;;;;;;;;;;5028000;28;20042;-80
2023/07/28 13:00:44;;;;;;;42.22;35.88;;;;;;;;;;5018371;28;20453;-84
2023/07/28 13:03:09;;;;;;;7.60;3.08;;;;;;;;;;5018105;28;20040;-86
2023/07/28 13:05:35;;;;;;;5.38;3.53;;;;;;;;;;5004029;28;20040;-83
2023/07/28 13:08:00;;;;;;;15.52;11.63;;;;;;;;;;5011839;28;20034;-83
2023/07/28 13:10:26;;;;;;;16.50;12.40;;;;;;;;;;5004578;28;20030;-83
2023/07/28 13:12:51;;;;;;;6.45;4.53;;;;;;;;;;5015360;28;20066;-83
2023/07/28 13:15:17;;;;;;;5.93;2.50;;;;;;;;;;4998570;28;20044;-83
2023/07/28 13:17:43;;;;;;;3.75;1.70;;;;;;;;;;5017934;28;20472;-84
2023/07/28 13:20:09;;;;;;;4.03;2.40;;;;;;;;;;5001772;28;20075;-83
2023/07/28 13:22:35;;;;;;;1.70;0.98;;;;;;;;;;5004776;28;20034;-87
2023/07/28 13:25:01;;;;;;;2.25;0.73;;;;;;;;;;5015687;28;20037;-84
2023/07/28 13:27:27;;;;;;;4.45;2.28;;;;;;;;;;5015249;28;20033;-84
2023/07/28 13:29:55;;;;;;;;;;;;;;;;;;5020700;28;20061;-84
2023/07/28 13:32:25;;;;;;;3.88;2.42;;;;;;;;;;5041291;28;19996;-83
2023/07/28 13:34:52;;;;;;;3.60;0.90;;;;;;;;;;5042364;28;20022;-83
2023/07/28 13:37:21;;;;;;;1.75;0.93;;;;;;;;;;5013164;28;20026;-83
2023/07/28 13:39:47;;;;;;;2.05;1.15;;;;;;;;;;5018837;28;20496;-83
2023/07/28 13:42:35;;;;;;;1.42;0.80;;;;;;;;;;5022184;28;20553;-83
2023/07/28 13:45:01;;;;;;;3.50;0.95;;;;;;;;;;5024885;28;20033;-84
2023/07/28 13:47:26;;;;;;;2.38;1.13;;;;;;;;;;5014381;28;20385;-83
2023/07/28 13:49:55;;;;;;;4.28;1.00;;;;;;;;;;5012129;28;20030;-85
2023/07/28 13:52:21;;;;;;;1.70;0.90;;;;;;;;;;5030392;28;20034;-86
2023/07/28 13:54:48;;;;;;;2.40;1.10;;;;;;;;;;5024181;28;20048;-85
2023/07/28 13:57:17;;;;;;;3.70;1.00;;;;;;;;;;5031063;28;20029;-85
2023/07/28 13:59:43;;;;;;;1.33;0.80;;;;;;;;;;5018344;28;20108;-86
2023/07/28 14:02:09;;;;;;;3.65;1.10;;;;;;;;;;5005224;28;20045;-86
2023/07/28 14:04:35;;;;;;;4.97;1.00;;;;;;;;;;5030188;28;20404;-86
2023/07/28 14:07:12;;;;;;;2.20;0.93;;;;;;;;;;5020873;28;20030;-85
2023/07/28 14:09:47;;;;;;;2.22;1.00;;;;;;;;;;5016660;28;20128;-85
2023/07/28 14:12:13;;;;;;;1.83;1.00;;;;;;;;;;5034965;28;20072;-84
2023/07/28 14:14:46;;;;;;;1.80;0.90;;;;;;;;;;5036017;28;20033;-85
2023/07/28 14:17:15;;;;;;;2.38;1.00;;;;;;;;;;5013975;28;20116;-85
2023/07/28 14:19:46;;;;;;;2.50;1.10;;;;;;;;;;5029926;28;20484;-84
2023/07/28 14:22:17;;;;;;;2.20;1.08;;;;;;;;;;5034279;28;20056;-85
2023/07/28 14:24:46;;;;;;;2.85;0.95;;;;;;;;;;4999312;28;20512;-85
2023/07/28 14:27:12;;;;;;;4.95;1.10;;;;;;;;;;5006491;28;20033;-84
2023/07/28 14:29:37;;;;;;;2.38;1.00;;;;;;;;;;5025474;28;20330;-86
2023/07/28 14:32:10;;;;;;;1.90;0.90;;;;;;;;;;5034927;28;20136;-85
2023/07/28 14:34:36;;;;;;;2.78;1.17;;;;;;;;;;5027794;28;20036;-83
2023/07/28 14:37:06;;;;;;;3.05;1.00;;;;;;;;;;4993439;28;20021;-85
2023/07/28 14:39:42;;;;;;;1.83;1.17;;;;;;;;;;5023739;28;20029;-84
2023/07/28 14:42:08;;;;;;;4.25;1.17;;;;;;;;;;5022585;28;20025;-84
2023/07/28 14:44:37;;;;;;;2.78;1.30;;;;;;;;;;5014802;28;20500;-85
2023/07/28 14:47:05;;;;;;;1.55;0.90;;;;;;;;;;5011104;28;20037;-85